Time;durP1;ratioP1;P1;durP2;ratioP2;P2;SDS_P1;SDS_P2;PMS_P1;PMS_P2;Temp;Humidity;BMP_temperature;BMP_pressure;BME280_temperature;BME280_humidity;BME280_pressure;Samples;Min_cycle;Max_cycle;Signal;HPM_P1;HPM_P2
2022/09/08 00:01:13;;;;;;;3.55;3.10;;;;;;;18.61;80.01;97704.94;7386571;19;20019;-71
2022/09/08 00:03:41;;;;;;;9.85;3.60;;;;;;;18.64;79.70;97696.47;7387787;19;20018;-71
2022/09/08 00:06:12;;;;;;;4.97;3.28;;;;;;;18.69;79.54;97703.81;7384747;19;20652;-71
2022/09/08 00:08:40;;;;;;;6.00;3.17;;;;;;;18.71;79.38;97704.41;7388878;19;20018;-71
2022/09/08 00:11:08;;;;;;;5.53;3.65;;;;;;;18.75;79.10;97708.31;7385773;19;20493;-71
2022/09/08 00:13:37;;;;;;;7.05;2.85;;;;;;;18.78;78.96;97723.94;7382302;19;20048;-71
2022/09/08 00:16:07;;;;;;;6.88;3.67;;;;;;;18.76;78.79;97723.34;7379999;19;20022;-71
2022/09/08 00:18:36;;;;;;;5.80;2.90;;;;;;;18.77;78.69;97725.00;7376932;19;20571;-71
2022/09/08 00:21:03;;;;;;;4.40;3.17;;;;;;;18.71;78.73;97717.81;7383457;19;20279;-71
2022/09/08 00:23:30;;;;;;;5.97;3.28;;;;;;;18.63;78.88;97710.88;7381597;19;20639;-71
2022/09/08 00:25:57;;;;;;;3.65;2.90;;;;;;;18.63;78.82;97715.44;7383250;19;20014;-71
2022/09/08 00:28:24;;;;;;;4.50;3.22;;;;;;;18.59;79.18;97716.94;7382626;19;20027;-71
2022/09/08 00:30:54;;;;;;;3.75;3.00;;;;;;;18.59;79.37;97708.91;7380907;19;20046;-71
2022/09/08 00:33:22;;;;;;;6.38;3.30;;;;;;;18.58;79.73;97704.56;7384855;19;20014;-71
2022/09/08 00:35:51;;;;;;;4.88;3.53;;;;;;;18.55;80.21;97702.34;7384756;19;20043;-71
2022/09/08 00:38:19;;;;;;;4.55;3.30;;;;;;;18.51;80.57;97719.88;7385028;19;20018;-72
2022/09/08 00:40:46;;;;;;;5.30;3.38;;;;;;;18.52;80.90;97708.16;7383985;19;20035;-71
2022/09/08 00:43:31;;;;;;;4.93;3.35;;;;;;;18.43;80.90;97716.47;7381430;19;20019;-71
2022/09/08 00:46:06;;;;;;;4.72;3.30;;;;;;;18.36;81.29;97718.41;7380674;19;20102;-71
2022/09/08 00:48:38;;;;;;;6.47;3.65;;;;;;;18.37;81.39;97725.38;7378438;19;20035;-71
2022/09/08 00:51:05;;;;;;;6.20;3.20;;;;;;;18.31;82.37;97726.28;7380050;19;20015;-71
2022/09/08 00:53:33;;;;;;;6.45;3.30;;;;;;;18.27;82.65;97726.94;7383150;19;20022;-71
2022/09/08 00:56:05;;;;;;;9.63;4.15;;;;;;;18.27;82.35;97721.56;7383903;19;20086;-70
2022/09/08 00:58:36;;;;;;;6.07;3.35;;;;;;;18.24;82.56;97730.88;7381635;19;20010;-71
2022/09/08 01:01:05;;;;;;;5.22;3.90;;;;;;;18.26;82.56;97734.16;7379676;19;20014;-71
2022/09/08 01:03:32;;;;;;;7.78;3.85;;;;;;;18.30;82.34;97742.53;7381403;19;20392;-71
2022/09/08 01:06:14;;;;;;;5.22;3.97;;;;;;;18.27;83.53;97759.88;7380829;19;20517;-71
2022/09/08 01:14:50;;;;;;;4.82;3.40;;;;;;;18.24;83.59;97776.38;7382242;19;20030;-71
2022/09/08 01:17:27;;;;;;;5.63;3.92;;;;;;;18.21;83.73;97766.13;7384444;19;20035;-71
2022/09/08 01:19:56;;;;;;;6.03;3.97;;;;;;;18.21;83.73;97771.47;7381215;19;20061;-72
2022/09/08 01:22:53;;;;;;;6.38;4.00;;;;;;;18.13;84.41;97766.41;7377182;19;20030;-70
2022/09/08 01:25:32;;;;;;;8.02;4.07;;;;;;;18.15;84.13;97764.31;7385713;19;20006;-72
2022/09/08 01:28:09;;;;;;;4.78;4.30;;;;;;;18.13;83.99;97769.06;7383388;19;20043;-72
2022/09/08 01:30:36;;;;;;;5.97;4.00;;;;;;;18.07;84.22;97761.94;7380543;19;20022;-72
2022/09/08 01:33:04;;;;;;;4.85;4.28;;;;;;;18.05;84.69;97769.34;7383067;19;20014;-71
2022/09/08 01:35:38;;;;;;;7.00;4.63;;;;;;;18.09;84.78;97766.03;7382916;19;20015;-70
2022/09/08 01:38:06;;;;;;;12.25;5.00;;;;;;;18.07;84.91;97759.25;7376200;19;20031;-72
2022/09/08 01:40:33;;;;;;;7.63;4.53;;;;;;;18.07;84.99;97761.94;7382597;19;20019;-72
2022/09/08 01:42:59;;;;;;;7.28;4.80;;;;;;;18.11;84.87;97752.41;7380987;19;20047;-72
2022/09/08 01:45:29;;;;;;;6.50;4.93;;;;;;;18.10;84.81;97746.25;7384188;19;20031;-73
2022/09/08 01:47:55;;;;;;;9.57;4.85;;;;;;;18.07;85.09;97741.31;7382491;19;20478;-73
2022/09/08 01:50:22;;;;;;;5.85;4.93;;;;;;;18.03;85.34;97742.78;7382925;19;20019;-73
2022/09/08 01:52:49;;;;;;;6.90;4.78;;;;;;;18.01;85.79;97744.03;7377568;19;20038;-72
2022/09/08 01:55:16;;;;;;;7.57;4.90;;;;;;;17.97;85.77;97733.78;7385080;19;20007;-71
2022/09/08 01:57:43;;;;;;;6.05;5.45;;;;;;;17.88;86.41;97736.97;7391051;19;20014;-73
2022/09/08 02:00:10;;;;;;;5.80;5.20;;;;;;;17.93;86.12;97732.59;7389228;19;20011;-71
2022/09/08 02:02:37;;;;;;;9.60;5.80;;;;;;;17.98;85.99;97723.88;7389612;19;20039;-72
2022/09/08 02:05:04;;;;;;;8.30;6.78;;;;;;;18.01;85.87;97728.84;7390156;19;20031;-72
2022/09/08 02:07:32;;;;;;;8.40;5.78;;;;;;;18.02;85.73;97722.44;7389281;19;20031;-72
2022/09/08 02:09:59;;;;;;;9.45;6.15;;;;;;;17.94;85.84;97720.84;7387622;19;20018;-73
2022/09/08 02:12:25;;;;;;;8.85;5.65;;;;;;;17.90;86.04;97724.16;7383638;19;20010;-73
2022/09/08 02:14:52;;;;;;;9.23;6.70;;;;;;;17.84;86.31;97715.16;7389439;19;20399;-72
2022/09/08 02:17:19;;;;;;;8.52;5.75;;;;;;;17.88;86.71;97715.56;7388262;19;20006;-73
2022/09/08 02:19:47;;;;;;;10.48;7.00;;;;;;;17.90;86.46;97708.91;7390379;19;20081;-72
2022/09/08 02:22:14;;;;;;;9.68;5.90;;;;;;;17.78;87.12;97711.47;7389554;19;20508;-73
2022/09/08 02:24:41;;;;;;;9.85;6.40;;;;;;;17.75;86.94;97711.91;7388210;19;20031;-73
2022/09/08 02:27:08;;;;;;;9.00;5.70;;;;;;;17.73;86.70;97710.50;7383856;19;20625;-73
2022/09/08 02:29:35;;;;;;;8.02;6.50;;;;;;;17.70;87.09;97702.91;7388492;19;20015;-72
2022/09/08 02:32:02;;;;;;;10.32;6.30;;;;;;;17.72;87.32;97709.69;7387130;19;20042;-73
2022/09/08 02:34:29;;;;;;;12.25;6.35;;;;;;;17.79;87.44;97698.94;7388976;19;20019;-72
2022/09/08 02:36:56;;;;;;;11.02;6.70;;;;;;;17.86;87.37;97699.72;7389056;19;20800;-73
2022/09/08 02:39:23;;;;;;;6.40;5.57;;;;;;;17.90;87.36;97698.22;7386955;19;20015;-73
2022/09/08 02:41:49;;;;;;;8.88;6.15;;;;;;;17.91;87.41;97691.03;7388742;19;20043;-73
2022/09/08 02:44:16;;;;;;;12.52;6.55;;;;;;;17.92;87.58;97690.00;7384465;19;20022;-73
2022/09/08 02:46:43;;;;;;;10.98;6.32;;;;;;;17.94;87.38;97696.75;7380594;19;22019;-73
2022/09/08 02:49:10;;;;;;;9.70;5.78;;;;;;;17.94;87.36;97688.72;7387559;19;20014;-72
2022/09/08 02:51:37;;;;;;;10.85;5.75;;;;;;;17.93;87.31;97694.28;7388740;19;20481;-73
2022/09/08 02:54:04;;;;;;;8.52;5.40;;;;;;;17.90;87.18;97676.81;7383279;19;20027;-72
2022/09/08 02:56:35;;;;;;;8.70;6.10;;;;;;;17.90;87.21;97686.72;7386402;19;20043;-71
2022/09/08 02:59:01;;;;;;;7.95;5.93;;;;;;;17.89;87.14;97677.06;7388353;19;20022;-71
2022/09/08 03:01:28;;;;;;;7.05;5.40;;;;;;;17.89;87.09;97682.41;7383123;19;20325;-72
2022/09/08 03:03:55;;;;;;;7.35;3.95;;;;;;;17.80;86.53;97681.88;7386946;19;20023;-71
2022/09/08 03:06:22;;;;;;;3.10;2.80;;;;;;;17.77;85.78;97676.91;7387883;19;20007;-72
2022/09/08 03:08:49;;;;;;;2.90;2.60;;;;;;;17.72;85.56;97685.59;7387145;19;20497;-73
2022/09/08 03:11:16;;;;;;;3.50;3.20;;;;;;;17.68;85.60;97681.72;7387329;19;20426;-72
2022/09/08 03:13:43;;;;;;;2.55;2.35;;;;;;;17.68;85.46;97687.06;7390035;19;20014;-73
2022/09/08 03:16:10;;;;;;;4.25;2.47;;;;;;;17.64;85.44;97685.88;7384820;19;20691;-71
2022/09/08 03:18:37;;;;;;;2.67;2.45;;;;;;;17.66;84.80;97691.00;7382620;19;20014;-72
2022/09/08 03:21:10;;;;;;;5.63;2.55;;;;;;;17.62;84.71;97687.94;7386161;19;20019;-73
2022/09/08 03:23:36;;;;;;;3.40;2.50;;;;;;;17.58;84.70;97688.59;7384476;19;20026;-72
2022/09/08 03:26:12;;;;;;;3.25;2.17;;;;;;;17.60;84.95;97692.69;7386747;19;20046;-72
2022/09/08 03:28:39;;;;;;;2.50;2.17;;;;;;;17.65;84.61;97692.84;7384957;19;20010;-72
2022/09/08 03:31:10;;;;;;;4.15;2.30;;;;;;;17.65;84.90;97689.38;7386514;19;20026;-72
2022/09/08 03:33:37;;;;;;;6.35;2.85;;;;;;;17.64;84.83;97685.88;7381378;19;20017;-71
2022/09/08 03:36:05;;;;;;;2.38;2.03;;;;;;;17.58;84.88;97689.41;7383146;19;20019;-72
2022/09/08 03:38:33;;;;;;;3.65;2.50;;;;;;;17.55;84.69;97690.66;7387289;19;20022;-72
2022/09/08 03:41:00;;;;;;;2.88;2.53;;;;;;;17.56;84.66;97694.13;7385588;19;20023;-72
2022/09/08 03:43:27;;;;;;;7.07;2.47;;;;;;;17.59;84.86;97695.56;7382582;19;20023;-72
2022/09/08 03:45:54;;;;;;;2.90;2.65;;;;;;;17.61;84.83;97685.47;7383084;19;20400;-72
2022/09/08 03:48:20;;;;;;;4.03;2.28;;;;;;;17.57;84.47;97692.31;7379873;19;20018;-72
2022/09/08 03:50:47;;;;;;;2.42;2.22;;;;;;;17.57;84.63;97686.97;7381852;19;20010;-72
2022/09/08 03:53:14;;;;;;;3.92;2.38;;;;;;;17.57;84.84;97690.44;7384766;19;20031;-72
2022/09/08 03:55:42;;;;;;;2.33;2.05;;;;;;;17.57;84.59;97686.97;7384246;19;20014;-72
2022/09/08 03:58:10;;;;;;;2.83;2.53;;;;;;;17.55;84.69;97685.31;7382366;19;20022;-72
2022/09/08 04:00:38;;;;;;;2.75;2.03;;;;;;;17.53;84.77;97689.22;7383685;19;20044;-73
2022/09/08 04:03:05;;;;;;;2.22;2.03;;;;;;;17.53;84.61;97690.03;7387473;19;20019;-73
2022/09/08 04:05:32;;;;;;;4.20;2.20;;;;;;;17.48;84.78;97681.88;7381911;19;20814;-72
2022/09/08 04:07:59;;;;;;;3.85;2.30;;;;;;;17.48;84.74;97687.22;7379861;19;20042;-73
2022/09/08 04:10:26;;;;;;;2.15;1.88;;;;;;;17.49;84.94;97693.38;7384879;19;20011;-72
2022/09/08 04:12:52;;;;;;;2.83;1.80;;;;;;;17.48;84.84;97681.88;7384544;19;20371;-72
2022/09/08 04:15:20;;;;;;;2.35;1.80;;;;;;;17.47;84.62;97690.09;7386128;19;20043;-73
2022/09/08 04:17:47;;;;;;;3.17;1.73;;;;;;;17.45;84.73;97678.81;7383190;19;20014;-71
2022/09/08 04:20:16;;;;;;;2.55;1.58;;;;;;;17.44;84.78;97683.34;7384754;19;20010;-72
2022/09/08 04:22:43;;;;;;;3.25;1.80;;;;;;;17.42;84.79;97685.41;7381313;19;20050;-73
2022/09/08 04:25:09;;;;;;;4.78;1.83;;;;;;;17.31;84.97;97684.25;7379584;19;20018;-72
2022/09/08 04:27:36;;;;;;;1.65;1.55;;;;;;;17.37;84.93;97687.91;7384314;19;20039;-72
2022/09/08 04:30:03;;;;;;;3.78;1.60;;;;;;;17.26;84.94;97684.06;7377676;19;20014;-71
2022/09/08 04:32:35;;;;;;;3.33;1.80;;;;;;;17.26;85.21;97683.25;7382357;19;20043;-72
2022/09/08 04:35:02;;;;;;;3.42;1.63;;;;;;;17.23;85.10;97689.03;7386470;19;20043;-72
2022/09/08 04:37:28;;;;;;;5.55;1.50;;;;;;;17.21;85.35;97683.88;7382865;19;20010;-73
2022/09/08 04:39:55;;;;;;;3.58;1.77;;;;;;;17.15;85.49;97694.63;7380935;19;20502;-73
2022/09/08 04:42:23;;;;;;;3.50;2.08;;;;;;;17.08;85.76;97690.13;7378874;19;20015;-73
2022/09/08 04:44:50;;;;;;;4.07;1.77;;;;;;;17.08;86.00;97695.47;7385909;19;20058;-73
2022/09/08 04:47:16;;;;;;;2.63;1.50;;;;;;;17.04;86.06;97702.28;7384076;19;20047;-73
2022/09/08 04:49:43;;;;;;;4.30;1.83;;;;;;;16.99;85.80;97696.78;7386670;19;20018;-73
2022/09/08 04:52:10;;;;;;;4.75;1.60;;;;;;;16.97;85.93;97704.16;7381761;19;20031;-72
2022/09/08 04:54:37;;;;;;;9.10;1.92;;;;;;;16.99;86.35;97696.78;7379880;19;20035;-73
2022/09/08 04:57:03;;;;;;;2.50;1.73;;;;;;;16.99;86.56;97702.09;7379718;19;20018;-73
2022/09/08 04:59:30;;;;;;;3.88;1.88;;;;;;;17.07;86.70;97704.53;7379225;19;20523;-73
2022/09/08 05:01:57;;;;;;;5.85;1.60;;;;;;;16.93;86.40;97713.66;7382547;19;20018;-72
2022/09/08 05:04:24;;;;;;;6.35;1.90;;;;;;;16.90;86.98;97706.03;7382898;19;20014;-72
2022/09/08 05:06:50;;;;;;;7.47;2.17;;;;;;;16.96;86.68;97707.88;7384045;19;20019;-72
2022/09/08 05:09:17;;;;;;;3.05;2.03;;;;;;;16.97;86.69;97714.03;7385129;19;20597;-72
2022/09/08 05:11:44;;;;;;;5.35;1.80;;;;;;;16.98;86.76;97710.31;7381384;19;20042;-73
2022/09/08 05:14:10;;;;;;;2.53;1.85;;;;;;;17.00;86.80;97706.41;7379767;19;20376;-72
2022/09/08 05:16:37;;;;;;;5.68;1.88;;;;;;;16.97;87.01;97714.84;7379581;19;20547;-73
2022/09/08 05:19:05;;;;;;;3.13;1.70;;;;;;;16.97;87.00;97725.53;7385552;19;20380;-73
2022/09/08 05:21:34;;;;;;;4.20;1.33;;;;;;;16.87;86.76;97735.84;7383127;19;20022;-72
2022/09/08 05:24:03;;;;;;;3.33;1.92;;;;;;;16.88;86.85;97734.84;7380104;19;20670;-72
2022/09/08 05:26:30;;;;;;;3.85;1.67;;;;;;;16.85;86.80;97748.59;7380965;19;20454;-72
2022/09/08 05:28:57;;;;;;;3.15;1.75;;;;;;;16.77;86.56;97755.03;7387844;19;20035;-72
2022/09/08 05:31:28;;;;;;;4.90;1.92;;;;;;;16.89;86.52;97745.31;7384721;19;20019;-72
2022/09/08 05:33:57;;;;;;;5.70;2.22;;;;;;;16.91;86.71;97749.63;7384764;19;20011;-72
2022/09/08 05:36:29;;;;;;;2.13;1.65;;;;;;;16.88;86.69;97753.56;7387558;19;20029;-72
2022/09/08 05:38:56;;;;;;;3.90;2.25;;;;;;;16.82;86.83;97759.72;7387488;19;20046;-73
2022/09/08 05:41:24;;;;;;;4.43;1.85;;;;;;;16.89;86.85;97765.88;7385900;19;20015;-73
2022/09/08 05:43:52;;;;;;;2.17;1.65;;;;;;;16.94;86.72;97763.38;7385468;19;20535;-73
2022/09/08 05:46:19;;;;;;;3.75;2.35;;;;;;;16.92;87.04;97768.09;7388103;19;21531;-71
2022/09/08 05:48:46;;;;;;;5.20;2.15;;;;;;;16.90;87.08;97770.16;7384210;19;20343;-72
2022/09/08 05:51:18;;;;;;;2.30;1.52;;;;;;;16.89;87.08;97782.72;7388721;19;21221;-72
2022/09/08 05:53:46;;;;;;;2.20;1.73;;;;;;;16.96;87.43;97788.03;7388044;19;20057;-72
2022/09/08 05:56:18;;;;;;;5.13;1.90;;;;;;;17.02;87.36;97786.38;7381898;19;20014;-73
2022/09/08 05:58:53;;;;;;;3.13;1.70;;;;;;;17.05;87.11;97786.75;7385352;19;20837;-73
2022/09/08 06:01:25;;;;;;;3.75;1.75;;;;;;;17.06;87.08;97790.25;7384299;19;20014;-72
2022/09/08 06:03:52;;;;;;;8.48;2.45;;;;;;;17.09;86.94;97800.53;7384546;19;20018;-72
2022/09/08 06:06:19;;;;;;;2.40;2.20;;;;;;;17.05;86.96;97802.81;7385140;19;20046;-73
2022/09/08 06:08:46;;;;;;;5.47;1.98;;;;;;;17.01;86.94;97804.28;7392544;19;20015;-72
2022/09/08 06:11:13;;;;;;;3.88;1.90;;;;;;;17.01;87.39;97806.94;7387753;19;20022;-72
2022/09/08 06:13:40;;;;;;;5.57;2.50;;;;;;;17.02;87.23;97805.09;7388067;19;20372;-73
2022/09/08 06:16:09;;;;;;;2.60;1.98;;;;;;;17.07;87.37;97808.75;7392783;19;20015;-72
2022/09/08 06:18:38;;;;;;;5.75;1.85;;;;;;;17.15;87.44;97817.59;7387402;19;20018;-73
2022/09/08 06:21:09;;;;;;;3.20;1.60;;;;;;;17.17;87.89;97812.81;7385077;19;20042;-72
2022/09/08 06:23:37;;;;;;;2.35;1.30;;;;;;;17.09;87.26;97814.72;7384700;19;20014;-72
2022/09/08 06:26:15;;;;;;;2.60;1.60;;;;;;;17.10;87.08;97811.00;7390207;19;20014;-72
2022/09/08 06:28:44;;;;;;;5.72;1.65;;;;;;;17.01;87.12;97806.09;7384127;19;20051;-72
2022/09/08 06:31:12;;;;;;;5.55;2.17;;;;;;;16.94;87.07;97813.34;7388229;19;20019;-72
2022/09/08 06:33:41;;;;;;;2.90;1.80;;;;;;;16.93;87.71;97819.69;7392050;19;20018;-72
2022/09/08 06:36:12;;;;;;;4.30;1.73;;;;;;;16.98;87.55;97818.06;7388501;19;20019;-72
2022/09/08 06:38:57;;;;;;;5.65;1.50;;;;;;;17.05;87.54;97818.03;7386313;19;20413;-72
2022/09/08 06:41:42;;;;;;;2.15;1.50;;;;;;;17.09;87.27;97809.38;7386138;19;20057;-72
2022/09/08 06:44:16;;;;;;;1.45;1.35;;;;;;;17.05;87.47;97810.00;7387819;19;20042;-72
2022/09/08 06:46:43;;;;;;;2.35;1.40;;;;;;;17.09;87.34;97820.06;7386920;19;20019;-72
2022/09/08 06:49:11;;;;;;;3.13;1.42;;;;;;;17.05;87.01;97820.69;7385293;19;20022;-72
2022/09/08 06:51:43;;;;;;;1.70;1.35;;;;;;;17.06;86.75;97815.16;7387306;19;20019;-72
2022/09/08 06:54:10;;;;;;;2.85;1.30;;;;;;;17.07;86.36;97815.97;7386496;19;20018;-72
2022/09/08 06:56:58;;;;;;;1.75;1.17;;;;;;;16.96;86.72;97825.44;7384902;19;20011;-72
2022/09/08 07:00:14;;;;;;;1.85;1.08;;;;;;;16.90;86.51;97823.59;7388618;19;20011;-72
2022/09/08 07:02:48;;;;;;;3.20;1.25;;;;;;;16.90;86.56;97815.59;7385334;19;20011;-72
2022/09/08 07:05:23;;;;;;;3.15;1.13;;;;;;;16.82;85.96;97813.97;7383816;19;20484;-72
2022/09/08 07:07:52;;;;;;;1.17;0.80;;;;;;;16.82;85.87;97824.66;7385953;19;20022;-72
2022/09/08 07:10:38;;;;;;;1.42;0.93;;;;;;;16.84;85.44;97832.47;7383943;19;20015;-72
2022/09/08 07:13:33;;;;;;;3.75;1.00;;;;;;;16.85;85.55;97831.41;7379888;19;20018;-72
2022/09/08 07:16:08;;;;;;;1.42;0.90;;;;;;;16.80;85.43;97826.72;7387936;19;20014;-72
2022/09/08 07:18:40;;;;;;;1.83;0.90;;;;;;;16.84;85.78;97833.28;7386171;19;20017;-73
2022/09/08 07:21:43;;;;;;;1.80;0.75;;;;;;;16.90;85.09;97834.28;7385952;19;20039;-72
2022/09/08 07:24:13;;;;;;;3.58;1.13;;;;;;;16.93;84.68;97827.72;7385244;19;20501;-73
2022/09/08 07:26:47;;;;;;;1.80;1.00;;;;;;;16.96;84.50;97833.47;7384876;19;20018;-73
2022/09/08 07:29:20;;;;;;;2.92;0.82;;;;;;;17.03;84.46;97846.78;7383701;19;20019;-72
2022/09/08 07:31:49;;;;;;;5.22;0.80;;;;;;;17.13;84.32;97835.69;7385046;19;20021;-73
2022/09/08 07:34:31;;;;;;;2.33;0.80;;;;;;;17.08;84.24;97838.97;7387273;19;20474;-73
2022/09/08 07:37:24;;;;;;;1.33;0.80;;;;;;;17.23;84.01;97836.06;7384504;19;20038;-72
2022/09/08 07:40:03;;;;;;;0.80;0.80;;;;;;;17.32;83.84;97845.47;7385015;19;20036;-73
2022/09/08 07:42:30;;;;;;;2.25;0.65;;;;;;;17.45;83.44;97845.41;7383406;19;20017;-72
2022/09/08 07:44:59;;;;;;;2.50;0.98;;;;;;;17.54;82.89;97849.50;7380285;19;20103;-72
2022/09/08 07:47:34;;;;;;;2.97;0.77;;;;;;;17.67;82.39;97851.28;7383437;19;20017;-73
2022/09/08 07:50:03;;;;;;;2.60;0.80;;;;;;;17.64;79.66;97845.53;7386591;19;20054;-72
2022/09/08 07:52:45;;;;;;;1.15;0.70;;;;;;;17.59;80.96;97850.69;7382589;19;20060;-73
2022/09/08 07:55:42;;;;;;;1.48;0.75;;;;;;;17.50;81.94;97852.81;7384290;19;20078;-72
2022/09/08 07:58:18;;;;;;;3.25;0.60;;;;;;;17.50;80.03;97852.81;7382737;19;20039;-73
2022/09/08 08:01:07;;;;;;;1.85;0.70;;;;;;;17.33;81.76;97858.63;7381897;19;20015;-72
2022/09/08 08:03:34;;;;;;;3.20;1.00;;;;;;;17.34;82.58;97860.25;7379699;19;20629;-74
2022/09/08 08:06:37;;;;;;;0.88;0.68;;;;;;;17.65;79.99;97860.56;7386293;19;20094;-74
2022/09/08 08:09:04;;;;;;;3.70;0.63;;;;;;;17.80;77.96;97861.13;7383976;19;20010;-74
2022/09/08 08:12:17;;;;;;;7.38;0.88;;;;;;;17.94;79.81;97864.53;7384015;19;20014;-73
2022/09/08 08:14:52;;;;;;;3.53;0.90;;;;;;;18.49;79.89;97872.00;7384591;19;20022;-73
2022/09/08 08:17:30;;;;;;;1.92;0.98;;;;;;;18.79;74.96;97869.47;7382242;19;20494;-72
2022/09/08 08:20:03;;;;;;;4.13;0.90;;;;;;;19.11;74.10;97880.91;7381963;19;20021;-73
2022/09/08 08:22:37;;;;;;;1.13;0.52;;;;;;;19.23;73.83;97878.31;7384407;19;20046;-73
2022/09/08 08:25:18;;;;;;;1.05;0.75;;;;;;;19.06;72.27;97873.53;7388088;19;20043;-73
2022/09/08 08:28:17;;;;;;;1.27;0.65;;;;;;;19.54;72.51;97890.75;7382976;19;20744;-71
2022/09/08 08:31:00;;;;;;;5.03;0.80;;;;;;;20.36;69.44;97884.91;7384230;19;20026;-71
2022/09/08 08:33:33;;;;;;;3.13;0.63;;;;;;;21.03;64.21;97882.72;7381173;19;20022;-71
2022/09/08 08:36:12;;;;;;;0.65;0.63;;;;;;;21.42;65.72;97880.38;7379831;19;20044;-71
2022/09/08 08:38:42;;;;;;;0.40;0.40;;;;;;;21.06;64.04;97876.06;7380720;19;20018;-72
2022/09/08 08:41:21;;;;;;;3.35;0.60;;;;;;;20.62;66.40;97886.38;7382515;19;20039;-72
2022/09/08 08:44:01;;;;;;;1.17;0.40;;;;;;;20.60;67.27;97888.47;7383484;19;20055;-72
2022/09/08 08:46:37;;;;;;;0.93;0.60;;;;;;;20.61;63.87;97885.53;7382500;19;20014;-72
2022/09/08 08:49:38;;;;;;;3.78;0.50;;;;;;;20.03;68.82;97893.44;7384606;19;20042;-72
2022/09/08 08:52:35;;;;;;;0.40;0.40;;;;;;;19.74;66.22;97898.56;7375038;19;20023;-71
2022/09/08 08:55:43;;;;;;;0.60;0.50;;;;;;;19.51;68.73;97891.19;7383603;19;20029;-71
2022/09/08 08:58:31;;;;;;;1.80;0.60;;;;;;;19.46;69.08;97899.09;7384832;19;20019;-71
2022/09/08 09:01:21;;;;;;;3.83;0.95;;;;;;;19.39;66.92;97904.53;7385351;19;20084;-73
2022/09/08 09:04:00;;;;;;;2.83;0.73;;;;;;;19.64;69.58;97900.94;7391643;19;20021;-72
2022/09/08 09:07:03;;;;;;;1.25;0.60;;;;;;;19.72;68.02;97904.19;7394530;19;20027;-72
2022/09/08 09:10:00;;;;;;;0.70;0.70;;;;;;;20.09;66.43;97890.66;7390075;19;20420;-72
2022/09/08 09:12:41;;;;;;;1.67;0.40;;;;;;;20.04;65.37;97890.53;7392733;19;20396;-73
2022/09/08 09:15:20;;;;;;;4.20;0.60;;;;;;;20.07;65.64;97903.50;7393609;19;20011;-72
2022/09/08 09:18:34;;;;;;;0.77;0.40;;;;;;;20.20;62.11;97905.19;7392377;19;20053;-72
2022/09/08 09:21:07;;;;;;;0.50;0.50;;;;;;;20.28;64.84;97896.78;7405879;19;20026;-72
2022/09/08 09:23:47;;;;;;;5.18;0.50;;;;;;;20.25;63.56;97901.78;7390984;19;20509;-72
2022/09/08 09:26:19;;;;;;;1.33;0.47;;;;;;;20.50;65.15;97905.13;7392903;19;20048;-73
2022/09/08 09:29:19;;;;;;;1.38;0.57;;;;;;;20.70;64.16;97902.16;7396788;19;20014;-73
2022/09/08 09:31:58;;;;;;;1.65;0.40;;;;;;;20.28;65.32;97906.72;7397210;19;20025;-72
2022/09/08 09:34:49;;;;;;;0.75;0.50;;;;;;;20.41;65.59;97906.53;7398460;19;20015;-73
2022/09/08 09:37:37;;;;;;;0.98;0.55;;;;;;;20.70;64.06;97914.78;7396577;19;20018;-73
2022/09/08 09:40:18;;;;;;;1.60;0.70;;;;;;;20.18;63.87;97908.06;7394912;19;20018;-73
2022/09/08 09:43:23;;;;;;;1.05;0.40;;;;;;;20.08;62.71;97901.63;7390791;19;20018;-73
2022/09/08 09:45:59;;;;;;;1.60;0.50;;;;;;;20.75;63.83;97904.97;7394111;19;20018;-73
2022/09/08 09:48:50;;;;;;;2.47;0.50;;;;;;;20.93;61.37;97904.03;7395809;19;20058;-73
2022/09/08 09:51:25;;;;;;;0.77;0.50;;;;;;;20.33;64.37;97901.47;7398385;19;20018;-73
2022/09/08 09:54:07;;;;;;;1.90;0.68;;;;;;;20.52;65.44;97905.72;7397580;19;20639;-73
2022/09/08 09:57:01;;;;;;;1.58;0.60;;;;;;;20.77;65.13;97904.72;7394556;19;20643;-73
2022/09/08 10:00:20;;;;;;;2.55;0.50;;;;;;;20.42;63.67;97902.78;7395554;19;20026;-73
2022/09/08 10:03:21;;;;;;;2.38;0.63;;;;;;;20.96;62.69;97903.56;7393250;19;20035;-73
2022/09/08 10:06:02;;;;;;;1.85;0.60;;;;;;;20.72;61.97;97899.22;7394602;19;20053;-73
2022/09/08 10:08:42;;;;;;;4.05;0.63;;;;;;;20.78;63.87;97896.44;7396893;19;20698;-73
2022/09/08 10:11:42;;;;;;;5.57;0.50;;;;;;;20.97;62.33;97890.94;7395587;19;20069;-72
2022/09/08 10:14:09;;;;;;;0.88;0.45;;;;;;;21.30;60.89;97893.03;7389928;19;20007;-74
2022/09/08 10:17:06;;;;;;;5.57;0.95;;;;;;;21.09;61.60;97893.59;7383043;19;20392;-73
2022/09/08 10:20:06;;;;;;;2.33;0.73;;;;;;;20.75;60.75;97893.41;7389037;19;20014;-72
2022/09/08 10:22:54;;;;;;;2.80;0.75;;;;;;;20.79;62.15;97890.00;7386307;19;20023;-73
2022/09/08 10:25:58;;;;;;;1.75;0.60;;;;;;;20.11;63.69;97890.41;7388308;19;20015;-74
2022/09/08 10:28:44;;;;;;;0.98;0.50;;;;;;;20.48;62.97;97887.59;7386744;19;20074;-73
2022/09/08 10:31:38;;;;;;;2.58;0.50;;;;;;;20.93;62.20;97881.69;7382178;19;20023;-73
2022/09/08 10:34:36;;;;;;;0.98;0.70;;;;;;;21.39;59.58;97880.84;7385378;19;20022;-72
2022/09/08 10:37:10;;;;;;;2.55;0.60;;;;;;;21.40;59.91;97887.84;7380170;19;20015;-73
2022/09/08 10:39:43;;;;;;;2.17;0.52;;;;;;;21.79;59.24;97890.78;7387678;19;20039;-72
2022/09/08 10:42:28;;;;;;;2.55;0.75;;;;;;;21.66;59.80;97886.50;7382466;19;20026;-72
2022/09/08 10:45:18;;;;;;;1.50;0.65;;;;;;;21.69;57.91;97877.13;7386930;19;20037;-73
2022/09/08 10:48:00;;;;;;;3.60;0.60;;;;;;;21.53;59.75;97883.28;7385798;19;20043;-74
2022/09/08 10:50:29;;;;;;;;;;;;;;;21.81;56.97;97893.25;7383956;19;20006;-73
2022/09/08 10:53:20;;;;;;;0.85;0.28;;;;;;;21.96;52.42;97890.88;7386336;19;19923;-73
2022/09/08 10:55:59;;;;;;;1.38;0.45;;;;;;;21.45;55.63;97884.47;7388815;19;20014;-73
2022/09/08 10:58:52;;;;;;;1.20;0.60;;;;;;;21.10;57.21;97895.25;7383884;19;20047;-72
2022/09/08 11:01:26;;;;;;;0.95;0.50;;;;;;;20.94;58.47;97892.22;7389103;19;20024;-73
2022/09/08 11:03:53;;;;;;;;;;;;;;;21.19;56.39;97891.16;7386167;19;20023;-73
2022/09/08 11:06:57;;;;;;;1.70;0.55;;;;;;;21.13;58.50;97881.34;7381650;19;19943;-72
2022/09/08 11:09:30;;;;;;;2.70;0.35;;;;;;;21.05;59.56;97894.06;7386905;19;20014;-72
2022/09/08 11:12:16;;;;;;;;;;;;;;;20.61;60.88;97888.22;7386087;19;20058;-73
2022/09/08 11:15:21;;;;;;;1.33;0.50;;;;;;;20.24;61.28;97894.78;7384430;19;20351;-73
2022/09/08 11:17:50;;;;;;;0.88;0.50;;;;;;;19.79;63.92;97909.44;7385977;19;20014;-73
2022/09/08 11:20:34;;;;;;;0.57;0.43;;;;;;;19.69;63.83;97903.78;7386532;19;20026;-73
2022/09/08 11:23:10;;;;;;;2.25;0.50;;;;;;;19.82;62.07;97913.53;7381498;19;20024;-72
2022/09/08 11:26:05;;;;;;;2.05;0.77;;;;;;;20.43;63.88;97911.63;7381354;19;20473;-73
2022/09/08 11:28:41;;;;;;;2.88;0.35;;;;;;;20.77;61.31;97910.94;7382509;19;20050;-73
2022/09/08 11:31:46;;;;;;;2.60;0.57;;;;;;;21.04;59.23;97905.91;7380791;19;20026;-73
2022/09/08 11:34:21;;;;;;;4.00;1.13;;;;;;;21.10;59.36;97901.44;7380371;19;20011;-73
2022/09/08 11:36:51;;;;;;;2.47;0.50;;;;;;;21.46;56.96;97907.66;7381957;19;20014;-73
2022/09/08 11:39:27;;;;;;;2.92;0.55;;;;;;;21.84;56.80;97907.06;7379872;19;20010;-73
2022/09/08 11:42:07;;;;;;;2.08;0.60;;;;;;;22.24;57.42;97905.41;7382367;19;20019;-73
2022/09/08 11:44:46;;;;;;;2.40;0.70;;;;;;;22.63;52.82;97897.44;7382932;19;20011;-72
2022/09/08 11:47:37;;;;;;;1.55;0.50;;;;;;;22.48;53.68;97901.50;7387913;19;20011;-73
2022/09/08 11:50:04;;;;;;;1.50;0.40;;;;;;;21.61;54.25;97894.47;7385459;19;20039;-73
2022/09/08 11:53:16;;;;;;;3.42;0.70;;;;;;;21.59;55.94;97898.47;7383010;19;20017;-73
2022/09/08 11:56:25;;;;;;;4.25;0.82;;;;;;;21.71;50.70;97901.94;7378533;19;20016;-73
2022/09/08 11:59:13;;;;;;;3.40;0.63;;;;;;;21.94;53.72;97892.16;7384646;19;20875;-72
2022/09/08 12:02:18;;;;;;;1.83;0.70;;;;;;;22.13;53.13;97889.00;7383184;19;20046;-73
2022/09/08 12:05:15;;;;;;;2.28;0.70;;;;;;;22.08;51.03;97901.56;7387088;19;20078;-72
2022/09/08 12:08:36;;;;;;;0.73;0.40;;;;;;;21.52;52.91;97892.41;7382584;19;20474;-73
2022/09/08 12:11:11;;;;;;;2.25;0.80;;;;;;;21.17;56.39;97888.72;7382850;19;20497;-73
2022/09/08 12:14:11;;;;;;;3.78;0.90;;;;;;;21.16;57.09;97891.63;7380345;19;20006;-73
2022/09/08 12:17:10;;;;;;;1.13;0.70;;;;;;;21.12;55.73;97896.66;7381651;19;20014;-73
2022/09/08 12:20:05;;;;;;;2.28;0.63;;;;;;;21.39;54.04;97901.56;7383403;19;20437;-73